createdAt,value
2023-05-21T00:00:43.687Z,949.3
2023-05-21T00:01:45.439Z,949.3
2023-05-21T00:02:47.484Z,949.3
2023-05-21T00:03:50.092Z,949.3
2023-05-21T00:04:52.383Z,949.3
2023-05-21T00:05:54.086Z,949.3
2023-05-21T00:06:55.819Z,949.3
2023-05-21T00:07:57.657Z,949.3
2023-05-21T00:08:59.485Z,949.3
2023-05-21T00:10:01.402Z,949.3
2023-05-21T00:11:03.112Z,949.3
2023-05-21T00:12:04.872Z,949.2
2023-05-21T00:13:06.598Z,949.2
2023-05-21T00:14:08.344Z,949.2
2023-05-21T00:15:10.406Z,949.2
2023-05-21T00:16:12.365Z,949.2
2023-05-21T00:17:14.202Z,949.2
2023-05-21T00:18:16.088Z,949.2
2023-05-21T00:19:18.060Z,949.2
2023-05-21T00:20:20.083Z,949.1
2023-05-21T00:21:21.737Z,949.2
2023-05-21T00:22:23.654Z,949.1
2023-05-21T00:23:25.412Z,949.2
2023-05-21T00:24:27.181Z,949.2
2023-05-21T00:25:28.929Z,949.2
2023-05-21T00:26:30.527Z,949.2
2023-05-21T00:27:35.018Z,949.2
2023-05-21T00:28:36.650Z,949.1
2023-05-21T00:29:38.294Z,949.1
2023-05-21T00:30:40.108Z,949.1
2023-05-21T00:31:42.263Z,949.1
2023-05-21T00:32:44.569Z,949.1
2023-05-21T00:33:46.469Z,949.1
2023-05-21T00:34:48.236Z,949.1
2023-05-21T00:35:49.960Z,949.1
2023-05-21T00:36:51.708Z,949.1
2023-05-21T00:37:53.565Z,949.1
2023-05-21T00:38:55.293Z,949.1
2023-05-21T00:39:58.792Z,949.1
2023-05-21T00:41:00.560Z,949.1
2023-05-21T00:42:02.397Z,949.1
2023-05-21T00:43:04.188Z,949.1
2023-05-21T00:44:05.775Z,949.1
2023-05-21T00:45:07.434Z,949.1
2023-05-21T00:46:09.394Z,949.1
2023-05-21T00:47:11.234Z,949
2023-05-21T00:48:13.001Z,949
2023-05-21T00:49:14.668Z,949
2023-05-21T00:50:16.592Z,949
2023-05-21T00:51:18.873Z,949.1
2023-05-21T00:52:20.793Z,949.1
2023-05-21T00:53:22.632Z,949.1
2023-05-21T00:54:24.398Z,949.1
2023-05-21T00:55:26.321Z,949.1
2023-05-21T00:56:28.524Z,949.1
2023-05-21T00:57:30.558Z,949.1
2023-05-21T00:58:32.407Z,949
2023-05-21T00:59:34.173Z,949
2023-05-21T01:00:35.951Z,949
2023-05-21T01:01:38.081Z,949
2023-05-21T01:02:40.257Z,949
2023-05-21T01:03:42.595Z,949
2023-05-21T01:04:44.349Z,949
2023-05-21T01:05:46.320Z,949
2023-05-21T01:06:48.247Z,949
2023-05-21T01:07:50.065Z,949
2023-05-21T01:08:51.828Z,948.9
2023-05-21T01:09:53.570Z,948.9
2023-05-21T01:10:55.331Z,948.9
2023-05-21T01:11:57.175Z,948.9
2023-05-21T01:12:58.824Z,948.9
2023-05-21T01:14:00.437Z,949
2023-05-21T01:15:02.209Z,948.9
2023-05-21T01:16:03.993Z,948.9
2023-05-21T01:17:05.918Z,948.9
2023-05-21T01:18:08.071Z,948.9
2023-05-21T01:19:10.090Z,948.9
2023-05-21T01:20:12.393Z,948.9
2023-05-21T01:21:14.336Z,948.9
2023-05-21T01:22:16.317Z,948.9
2023-05-21T01:23:18.017Z,948.9
2023-05-21T01:24:19.733Z,948.9
2023-05-21T01:25:21.477Z,948.9
2023-05-21T01:26:23.255Z,948.9
2023-05-21T01:27:25.011Z,948.9
2023-05-21T01:28:26.865Z,948.9
2023-05-21T01:29:28.520Z,948.9
2023-05-21T01:30:30.274Z,948.9
2023-05-21T01:31:32.007Z,948.9
2023-05-21T01:32:33.978Z,948.8
2023-05-21T01:33:36.466Z,948.9
2023-05-21T01:34:39.712Z,948.9
2023-05-21T01:35:42.512Z,948.8
2023-05-21T01:36:44.347Z,948.8
2023-05-21T01:37:46.118Z,948.8
2023-05-21T01:38:47.880Z,948.8
2023-05-21T01:39:49.815Z,948.8
2023-05-21T01:40:51.462Z,948.8
2023-05-21T01:41:53.186Z,948.8
2023-05-21T01:42:55.031Z,948.8
2023-05-21T01:43:56.882Z,948.9
2023-05-21T01:44:58.696Z,948.8
2023-05-21T01:46:00.695Z,948.9
2023-05-21T01:47:02.540Z,948.8
2023-05-21T01:48:04.606Z,948.8
2023-05-21T01:49:06.656Z,948.8
2023-05-21T01:50:08.496Z,948.8
2023-05-21T01:51:10.269Z,948.8
2023-05-21T01:52:12.089Z,948.8
2023-05-21T01:53:13.970Z,948.8
2023-05-21T01:54:15.690Z,948.8
2023-05-21T01:55:17.314Z,948.8
2023-05-21T01:56:19.083Z,948.8
2023-05-21T01:57:20.861Z,948.8
2023-05-21T01:58:22.630Z,948.8
2023-05-21T01:59:24.322Z,948.8
2023-05-21T02:00:26.045Z,948.8
2023-05-21T02:01:27.760Z,948.8
2023-05-21T02:02:29.822Z,948.8
2023-05-21T02:03:32.489Z,948.8
2023-05-21T02:04:34.498Z,948.8
2023-05-21T02:05:37.042Z,948.8
2023-05-21T02:06:39.434Z,948.8
2023-05-21T02:07:41.155Z,948.7
2023-05-21T02:08:42.949Z,948.8
2023-05-21T02:09:44.565Z,948.8
2023-05-21T02:10:46.238Z,948.7
2023-05-21T02:11:48.056Z,948.7
2023-05-21T02:12:49.909Z,948.7
2023-05-21T02:13:51.661Z,948.7
2023-05-21T02:14:53.454Z,948.7
2023-05-21T02:15:55.753Z,948.7
2023-05-21T02:16:57.589Z,948.7
2023-05-21T02:17:59.591Z,948.7
2023-05-21T02:19:01.640Z,948.7
2023-05-21T02:20:03.358Z,948.6
2023-05-21T02:21:05.233Z,948.7
2023-05-21T02:22:07.067Z,948.6
2023-05-21T02:23:08.795Z,948.7
2023-05-21T02:24:10.710Z,948.7
2023-05-21T02:25:12.629Z,948.7
2023-05-21T02:26:14.595Z,948.7
2023-05-21T02:27:16.447Z,948.7
2023-05-21T02:28:18.290Z,948.7
2023-05-21T02:29:20.230Z,948.7
2023-05-21T02:30:22.084Z,948.7
2023-05-21T02:31:23.923Z,948.7
2023-05-21T02:32:26.035Z,948.6
2023-05-21T02:33:27.767Z,948.6
2023-05-21T02:34:29.568Z,948.6
2023-05-21T02:35:31.300Z,948.6
2023-05-21T02:36:32.961Z,948.6
2023-05-21T02:37:34.721Z,948.6
2023-05-21T02:38:36.581Z,948.6
2023-05-21T02:39:38.457Z,948.6
2023-05-21T02:40:40.476Z,948.6
2023-05-21T02:41:42.326Z,948.6
2023-05-21T02:42:44.388Z,948.6
2023-05-21T02:43:46.138Z,948.6
2023-05-21T02:44:47.790Z,948.6
2023-05-21T02:45:49.482Z,948.6
2023-05-21T02:46:51.280Z,948.6
2023-05-21T02:47:53.453Z,948.6
2023-05-21T02:48:58.026Z,948.6
2023-05-21T02:49:59.783Z,948.6
2023-05-21T02:51:01.548Z,948.6
2023-05-21T02:52:03.489Z,948.6
2023-05-21T02:53:05.264Z,948.6
2023-05-21T02:54:06.906Z,948.6
2023-05-21T02:55:08.651Z,948.6
2023-05-21T02:56:10.580Z,948.6
2023-05-21T02:57:12.637Z,948.6
2023-05-21T02:58:14.362Z,948.6
2023-05-21T02:59:15.976Z,948.6
2023-05-21T03:00:17.594Z,948.6
2023-05-21T03:01:19.574Z,948.5
2023-05-21T03:02:21.830Z,948.6
2023-05-21T03:03:24.393Z,948.5
2023-05-21T03:04:26.314Z,948.6
2023-05-21T03:05:27.896Z,948.6
2023-05-21T03:06:29.594Z,948.6
2023-05-21T03:07:31.214Z,948.6
2023-05-21T03:08:32.846Z,948.6
2023-05-21T03:09:34.572Z,948.6
2023-05-21T03:10:36.203Z,948.6
2023-05-21T03:11:37.805Z,948.5
2023-05-21T03:12:39.447Z,948.5
2023-05-21T03:13:41.432Z,948.6
2023-05-21T03:14:43.255Z,948.6
2023-05-21T03:15:45.124Z,948.6
2023-05-21T03:16:47.102Z,948.6
2023-05-21T03:17:49.048Z,948.6
2023-05-21T03:18:51.104Z,948.6
2023-05-21T03:19:53.139Z,948.6
2023-05-21T03:20:54.852Z,948.6
2023-05-21T03:21:56.492Z,948.6
2023-05-21T03:22:58.172Z,948.7
2023-05-21T03:23:59.835Z,948.7
2023-05-21T03:25:01.573Z,948.7
2023-05-21T03:26:03.548Z,948.7
2023-05-21T03:27:05.299Z,948.7
2023-05-21T03:28:06.932Z,948.7
2023-05-21T03:29:08.635Z,948.7
2023-05-21T03:30:10.217Z,948.7
2023-05-21T03:31:11.845Z,948.7
2023-05-21T03:32:14.033Z,948.7
2023-05-21T03:33:16.082Z,948.7
2023-05-21T03:34:17.802Z,948.7
2023-05-21T03:35:19.564Z,948.7
2023-05-21T03:36:21.422Z,948.7
2023-05-21T03:37:23.230Z,948.7
2023-05-21T03:38:24.845Z,948.7
2023-05-21T03:39:26.500Z,948.7
2023-05-21T03:40:28.155Z,948.7
2023-05-21T03:41:29.944Z,948.7
2023-05-21T03:42:31.682Z,948.7
2023-05-21T03:43:33.580Z,948.7
2023-05-21T03:44:35.260Z,948.7
2023-05-21T03:45:38.341Z,948.7
2023-05-21T03:46:42.803Z,948.7
2023-05-21T03:47:44.701Z,948.7
2023-05-21T03:48:46.455Z,948.7
2023-05-21T03:49:48.220Z,948.7
2023-05-21T03:50:49.936Z,948.7
2023-05-21T03:51:51.757Z,948.6
2023-05-21T03:52:53.357Z,948.6
2023-05-21T03:53:54.970Z,948.6
2023-05-21T03:54:56.633Z,948.6
2023-05-21T03:55:58.428Z,948.6
2023-05-21T03:57:00.592Z,948.6
2023-05-21T03:58:02.428Z,948.6
2023-05-21T03:59:04.233Z,948.6
2023-05-21T04:00:05.882Z,948.7
2023-05-21T04:01:07.601Z,948.7
2023-05-21T04:02:09.410Z,948.6
2023-05-21T04:03:11.691Z,948.7
2023-05-21T04:04:14.064Z,948.6
2023-05-21T04:05:15.958Z,948.6
2023-05-21T04:06:17.528Z,948.6
2023-05-21T04:07:19.117Z,948.7
2023-05-21T04:08:20.755Z,948.7
2023-05-21T04:09:22.372Z,948.7
2023-05-21T04:10:24.037Z,948.7
2023-05-21T04:11:25.738Z,948.7
2023-05-21T04:12:27.564Z,948.7
2023-05-21T04:13:29.379Z,948.7
2023-05-21T04:14:31.012Z,948.6
2023-05-21T04:15:32.628Z,948.6
2023-05-21T04:16:34.575Z,948.6
2023-05-21T04:17:36.750Z,948.6
2023-05-21T04:18:38.357Z,948.7
2023-05-21T04:19:40.366Z,948.6
2023-05-21T04:20:42.044Z,948.6
2023-05-21T04:21:43.637Z,948.7
2023-05-21T04:22:45.249Z,948.7
2023-05-21T04:23:46.852Z,948.7
2023-05-21T04:24:48.530Z,948.6
2023-05-21T04:25:50.237Z,948.6
2023-05-21T04:26:51.878Z,948.6
2023-05-21T04:27:53.532Z,948.6
2023-05-21T04:28:55.146Z,948.6
2023-05-21T04:29:56.798Z,948.6
2023-05-21T04:30:58.527Z,948.6
2023-05-21T04:32:00.307Z,948.7
2023-05-21T04:33:02.125Z,948.6
2023-05-21T04:34:03.881Z,948.7
2023-05-21T04:35:05.468Z,948.6
2023-05-21T04:36:07.050Z,948.6
2023-05-21T04:37:08.630Z,948.6
2023-05-21T04:38:10.258Z,948.6
2023-05-21T04:39:11.884Z,948.6
2023-05-21T04:40:13.617Z,948.6
2023-05-21T04:41:15.414Z,948.7
2023-05-21T04:42:17.182Z,948.7
2023-05-21T04:43:18.990Z,948.7
2023-05-21T04:44:20.823Z,948.7
2023-05-21T04:45:22.428Z,948.7
2023-05-21T04:46:24.119Z,948.7
2023-05-21T04:47:26.076Z,948.7
2023-05-21T04:48:27.839Z,948.7
2023-05-21T04:49:29.539Z,948.7
2023-05-21T04:50:31.373Z,948.7
2023-05-21T04:51:33.019Z,948.7
2023-05-21T04:52:34.601Z,948.7
2023-05-21T04:53:36.216Z,948.7
2023-05-21T04:54:37.851Z,948.7
2023-05-21T04:55:39.425Z,948.7
2023-05-21T04:56:41.106Z,948.7
2023-05-21T04:57:42.736Z,948.7
2023-05-21T04:58:44.529Z,948.7
2023-05-21T04:59:46.131Z,948.7
2023-05-21T05:00:47.985Z,948.7
2023-05-21T05:01:49.658Z,948.6
2023-05-21T05:02:51.770Z,948.6
2023-05-21T05:03:53.969Z,948.6
2023-05-21T05:04:55.967Z,948.6
2023-05-21T05:05:57.607Z,948.6
2023-05-21T05:06:59.264Z,948.6
2023-05-21T05:08:00.910Z,948.6
2023-05-21T05:09:02.539Z,948.6
2023-05-21T05:10:04.197Z,948.7
2023-05-21T05:11:05.794Z,948.6
2023-05-21T05:12:07.502Z,948.7
2023-05-21T05:13:09.133Z,948.7
2023-05-21T05:14:10.859Z,948.6
2023-05-21T05:15:12.523Z,948.7
2023-05-21T05:16:14.294Z,948.6
2023-05-21T05:17:16.072Z,948.6
2023-05-21T05:18:17.700Z,948.6
2023-05-21T05:19:19.601Z,948.7
2023-05-21T05:20:21.419Z,948.7
2023-05-21T05:21:23.097Z,948.7
2023-05-21T05:22:24.687Z,948.7
2023-05-21T05:23:26.306Z,948.7
2023-05-21T05:24:27.888Z,948.7
2023-05-21T05:25:29.491Z,948.7
2023-05-21T05:26:31.153Z,948.8
2023-05-21T05:27:32.788Z,948.7
2023-05-21T05:28:34.414Z,948.7
2023-05-21T05:29:36.224Z,948.7
2023-05-21T05:30:38.267Z,948.7
2023-05-21T05:31:40.314Z,948.7
2023-05-21T05:32:42.471Z,948.7
2023-05-21T05:33:44.156Z,948.7
2023-05-21T05:34:45.750Z,948.7
2023-05-21T05:35:47.341Z,948.7
2023-05-21T05:36:49.064Z,948.7
2023-05-21T05:37:50.675Z,948.7
2023-05-21T05:38:52.305Z,948.7
2023-05-21T05:39:53.990Z,948.7
2023-05-21T05:40:55.934Z,948.7
2023-05-21T05:41:57.717Z,948.6
2023-05-21T05:42:59.308Z,948.7
2023-05-21T05:44:00.908Z,948.6
2023-05-21T05:45:02.555Z,948.6
2023-05-21T05:46:04.372Z,948.6
2023-05-21T05:47:06.368Z,948.6
2023-05-21T05:48:08.209Z,948.6
2023-05-21T05:49:10.004Z,948.6
2023-05-21T05:50:11.895Z,948.6
2023-05-21T05:51:13.781Z,948.6
2023-05-21T05:52:15.430Z,948.6
2023-05-21T05:53:17.216Z,948.6
2023-05-21T05:54:18.943Z,948.6
2023-05-21T05:55:20.608Z,948.6
2023-05-21T05:56:22.215Z,948.6
2023-05-21T05:57:23.842Z,948.6
2023-05-21T05:58:25.569Z,948.6
2023-05-21T05:59:27.503Z,948.6
2023-05-21T06:00:29.204Z,948.6
2023-05-21T06:01:30.884Z,948.6
2023-05-21T06:02:33.092Z,948.6
2023-05-21T06:03:35.598Z,948.6
2023-05-21T06:04:37.554Z,948.6
2023-05-21T06:05:40.267Z,948.6
2023-05-21T06:06:42.579Z,948.6
2023-05-21T06:07:44.270Z,948.6
2023-05-21T06:08:45.984Z,948.5
2023-05-21T06:09:47.747Z,948.5
2023-05-21T06:10:49.384Z,948.6
2023-05-21T06:11:51.019Z,948.5
2023-05-21T06:12:52.773Z,948.5
2023-05-21T06:13:54.552Z,948.5
2023-05-21T06:14:56.166Z,948.5
2023-05-21T06:15:57.957Z,948.6
2023-05-21T06:16:59.667Z,948.6
2023-05-21T06:18:01.424Z,948.5
2023-05-21T06:19:03.488Z,948.5
2023-05-21T06:20:05.549Z,948.5
2023-05-21T06:21:07.185Z,948.5
2023-05-21T06:22:08.926Z,948.5
2023-05-21T06:23:10.780Z,948.5
2023-05-21T06:24:12.508Z,948.5
2023-05-21T06:25:14.469Z,948.5
2023-05-21T06:26:16.180Z,948.5
2023-05-21T06:27:17.845Z,948.5
2023-05-21T06:28:19.517Z,948.5
2023-05-21T06:29:21.165Z,948.4
2023-05-21T06:30:22.922Z,948.5
2023-05-21T06:31:24.788Z,948.5
2023-05-21T06:32:26.929Z,948.5
2023-05-21T06:33:29.336Z,948.5
2023-05-21T06:34:31.495Z,948.5
2023-05-21T06:35:33.153Z,948.5
2023-05-21T06:36:34.912Z,948.4
2023-05-21T06:37:36.699Z,948.4
2023-05-21T06:38:38.333Z,948.4
2023-05-21T06:39:40.035Z,948.4
2023-05-21T06:40:41.803Z,948.4
2023-05-21T06:41:43.732Z,948.4
2023-05-21T06:42:45.603Z,948.4
2023-05-21T06:43:47.458Z,948.4
2023-05-21T06:44:49.300Z,948.4
2023-05-21T06:45:51.162Z,948.4
2023-05-21T06:46:53.021Z,948.4
2023-05-21T06:47:54.703Z,948.3
2023-05-21T06:48:56.499Z,948.4
2023-05-21T06:49:58.142Z,948.4
2023-05-21T06:50:59.750Z,948.3
2023-05-21T06:52:01.452Z,948.3
2023-05-21T06:53:03.092Z,948.3
2023-05-21T06:54:04.717Z,948.4
2023-05-21T06:55:06.393Z,948.4
2023-05-21T06:56:08.134Z,948.4
2023-05-21T06:57:09.800Z,948.4
2023-05-21T06:58:11.487Z,948.3
2023-05-21T06:59:13.201Z,948.3
2023-05-21T07:00:14.893Z,948.3
2023-05-21T07:01:17.046Z,948.3
2023-05-21T07:02:19.267Z,948.4
2023-05-21T07:03:21.738Z,948.3
2023-05-21T07:04:23.758Z,948.3
2023-05-21T07:05:25.444Z,948.3
2023-05-21T07:06:27.093Z,948.3
2023-05-21T07:07:28.744Z,948.2
2023-05-21T07:08:30.354Z,948.2
2023-05-21T07:09:32.006Z,948.2
2023-05-21T07:10:33.664Z,948.2
2023-05-21T07:11:35.331Z,948.2
2023-05-21T07:12:36.921Z,948.3
2023-05-21T07:13:38.621Z,948.3
2023-05-21T07:14:40.389Z,948.3
2023-05-21T07:15:42.068Z,948.2
2023-05-21T07:16:43.940Z,948.2
2023-05-21T07:17:46.000Z,948.3
2023-05-21T07:18:47.930Z,948.2
2023-05-21T07:19:49.577Z,948.2
2023-05-21T07:20:51.264Z,948.2
2023-05-21T07:21:53.040Z,948.3
2023-05-21T07:22:54.889Z,948.3
2023-05-21T07:23:56.850Z,948.3
2023-05-21T07:24:58.691Z,948.3
2023-05-21T07:26:00.714Z,948.2
2023-05-21T07:27:26.013Z,948.2
2023-05-21T07:28:28.066Z,948.3
2023-05-21T07:29:29.668Z,948.3
2023-05-21T07:30:31.322Z,948.3
2023-05-21T07:31:33.482Z,948.3
2023-05-21T07:32:35.815Z,948.3
2023-05-21T07:33:37.793Z,948.3
2023-05-21T07:34:39.368Z,948.3
2023-05-21T07:35:40.986Z,948.3
2023-05-21T07:36:42.676Z,948.3
2023-05-21T07:37:44.454Z,948.3
2023-05-21T07:38:46.112Z,948.3
2023-05-21T07:39:47.740Z,948.3
2023-05-21T07:40:49.351Z,948.3
2023-05-21T07:41:50.997Z,948.3
2023-05-21T07:42:52.565Z,948.3
2023-05-21T07:43:54.197Z,948.3
2023-05-21T07:44:55.953Z,948.3
2023-05-21T07:45:57.802Z,948.3
2023-05-21T07:46:59.588Z,948.3
2023-05-21T07:48:01.637Z,948.3
2023-05-21T07:49:03.584Z,948.3
2023-05-21T07:50:05.191Z,948.4
2023-05-21T07:51:06.842Z,948.4
2023-05-21T07:52:08.698Z,948.3
2023-05-21T07:53:10.796Z,948.3
2023-05-21T07:54:12.532Z,948.3
2023-05-21T07:55:14.183Z,948.3
2023-05-21T07:56:15.835Z,948.3
2023-05-21T07:57:17.481Z,948.3
2023-05-21T07:58:19.397Z,948.3
2023-05-21T07:59:21.253Z,948.3
2023-05-21T08:00:22.852Z,948.2
2023-05-21T08:01:24.428Z,948.2
2023-05-21T08:02:26.521Z,948.2
2023-05-21T08:03:29.226Z,948.3
2023-05-21T08:04:31.809Z,948.2
2023-05-21T08:05:33.994Z,948.2
2023-05-21T08:06:35.882Z,948.2
2023-05-21T08:07:37.511Z,948.2
2023-05-21T08:08:39.141Z,948.2
2023-05-21T08:09:41.012Z,948.2
2023-05-21T08:10:42.646Z,948.2
2023-05-21T08:11:44.347Z,948.2
2023-05-21T08:12:45.979Z,948.2
2023-05-21T08:13:47.691Z,948.2
2023-05-21T08:14:49.403Z,948.2
2023-05-21T08:15:54.031Z,948.2
2023-05-21T08:16:55.677Z,948.2
2023-05-21T08:17:57.567Z,948.2
2023-05-21T08:18:59.561Z,948.3
2023-05-21T08:20:01.344Z,948.2
2023-05-21T08:21:03.177Z,948.2
2023-05-21T08:22:05.056Z,948.2
2023-05-21T08:23:06.976Z,948.2
2023-05-21T08:24:08.814Z,948.2
2023-05-21T08:25:10.586Z,948.2
2023-05-21T08:26:12.417Z,948.2
2023-05-21T08:27:14.282Z,948.1
2023-05-21T08:28:16.073Z,948.1
2023-05-21T08:29:17.715Z,948.2
2023-05-21T08:30:19.403Z,948.2
2023-05-21T08:31:21.356Z,948.2
2023-05-21T08:32:23.550Z,948.2
2023-05-21T08:33:25.481Z,948.2
2023-05-21T08:34:27.338Z,948.2
2023-05-21T08:35:29.292Z,948.2
2023-05-21T08:36:31.055Z,948.2
2023-05-21T08:37:32.878Z,948.2
2023-05-21T08:38:34.626Z,948.2
2023-05-21T08:39:36.637Z,948.2
2023-05-21T08:40:38.527Z,948.2
2023-05-21T08:41:40.331Z,948.2
2023-05-21T08:42:42.039Z,948.2
2023-05-21T08:43:43.806Z,948.2
2023-05-21T08:44:45.389Z,948.2
2023-05-21T08:45:47.221Z,948.2
2023-05-21T08:46:48.836Z,948.2
2023-05-21T08:47:50.781Z,948.2
2023-05-21T08:48:52.817Z,948.2
2023-05-21T08:49:54.658Z,948.2
2023-05-21T08:50:56.441Z,948.1
2023-05-21T08:51:58.356Z,948.2
2023-05-21T08:53:00.218Z,948.1
2023-05-21T08:54:02.003Z,948.1
2023-05-21T08:55:03.916Z,948.1
2023-05-21T08:56:05.696Z,948.1
2023-05-21T08:57:07.606Z,948.2
2023-05-21T08:58:09.677Z,948.2
2023-05-21T08:59:11.696Z,948.1
2023-05-21T09:00:13.483Z,948.2
2023-05-21T09:01:15.158Z,948.2
2023-05-21T09:02:16.967Z,948.2
2023-05-21T09:03:19.336Z,948.2
2023-05-21T09:04:22.524Z,948.2
2023-05-21T09:05:24.453Z,948.2
2023-05-21T09:06:26.593Z,948.2
2023-05-21T09:07:28.281Z,948.3
2023-05-21T09:08:30.060Z,948.3
2023-05-21T09:09:31.862Z,948.3
2023-05-21T09:10:33.713Z,948.3
2023-05-21T09:11:35.597Z,948.3
2023-05-21T09:12:37.201Z,948.3
2023-05-21T09:13:39.484Z,948.3
2023-05-21T09:14:41.258Z,948.3
2023-05-21T09:15:42.978Z,948.3
2023-05-21T09:16:44.944Z,948.3
2023-05-21T09:17:46.973Z,948.3
2023-05-21T09:18:48.842Z,948.3
2023-05-21T09:19:50.764Z,948.3
2023-05-21T09:20:52.732Z,948.3
2023-05-21T09:21:54.597Z,948.3
2023-05-21T09:22:56.521Z,948.3
2023-05-21T09:23:58.190Z,948.3
2023-05-21T09:25:00.031Z,948.3
2023-05-21T09:26:01.825Z,948.3
2023-05-21T09:27:03.458Z,948.3
2023-05-21T09:28:05.169Z,948.3
2023-05-21T09:29:06.813Z,948.3
2023-05-21T09:30:08.652Z,948.3
2023-05-21T09:31:10.629Z,948.2
2023-05-21T09:32:12.663Z,948.2
2023-05-21T09:33:14.743Z,948.2
2023-05-21T09:34:16.681Z,948.2
2023-05-21T09:35:18.541Z,948.2
2023-05-21T09:36:20.308Z,948.2
2023-05-21T09:37:28.311Z,948.2
2023-05-21T09:38:30.225Z,948.2
2023-05-21T09:39:32.165Z,948.1
2023-05-21T09:40:34.050Z,948.2
2023-05-21T09:41:36.528Z,948.1
2023-05-21T09:42:38.257Z,948.1
2023-05-21T09:43:39.996Z,948.1
2023-05-21T09:44:41.724Z,948.1
2023-05-21T09:45:43.500Z,948.2
2023-05-21T09:46:45.585Z,948.1
2023-05-21T09:47:47.611Z,948.1
2023-05-21T09:48:52.380Z,948.2
2023-05-21T09:49:54.254Z,948.1
2023-05-21T09:50:56.110Z,948.1
2023-05-21T09:51:58.075Z,948.1
2023-05-21T09:53:00.561Z,948.1
2023-05-21T09:54:02.255Z,948.1
2023-05-21T09:55:04.043Z,948.1
2023-05-21T09:56:05.679Z,948.1
2023-05-21T09:57:07.332Z,948.1
2023-05-21T09:58:09.046Z,948.1
2023-05-21T09:59:11.010Z,948.1
2023-05-21T10:00:12.831Z,948.1
2023-05-21T10:01:14.482Z,948.1
2023-05-21T10:02:16.818Z,948.1
2023-05-21T10:03:19.044Z,948
2023-05-21T10:04:20.814Z,948
2023-05-21T10:05:22.771Z,948
2023-05-21T10:06:24.358Z,948
2023-05-21T10:07:26.451Z,948
2023-05-21T10:08:28.226Z,948
2023-05-21T10:09:29.803Z,948
2023-05-21T10:10:31.661Z,948
2023-05-21T10:11:33.599Z,948
2023-05-21T10:12:35.216Z,947.9
2023-05-21T10:13:36.835Z,947.9
2023-05-21T10:14:38.420Z,948
2023-05-21T10:15:40.088Z,948
2023-05-21T10:16:42.204Z,948
2023-05-21T10:17:44.127Z,948
2023-05-21T10:18:46.028Z,948
2023-05-21T10:19:47.671Z,947.9
2023-05-21T10:20:49.262Z,947.9
2023-05-21T10:21:53.037Z,947.9
2023-05-21T10:22:54.660Z,947.9
2023-05-21T10:23:56.387Z,947.9
2023-05-21T10:24:58.015Z,947.9
2023-05-21T10:25:59.723Z,947.9
2023-05-21T10:27:01.348Z,947.9
2023-05-21T10:28:02.909Z,947.9
2023-05-21T10:29:04.532Z,947.9
2023-05-21T10:30:06.184Z,947.9
2023-05-21T10:31:07.859Z,947.9
2023-05-21T10:32:09.925Z,947.8
2023-05-21T10:33:11.861Z,947.9
2023-05-21T10:34:13.688Z,947.8
2023-05-21T10:35:15.303Z,947.9
2023-05-21T10:36:16.911Z,947.8
2023-05-21T10:37:18.608Z,947.8
2023-05-21T10:38:20.262Z,947.8
2023-05-21T10:39:21.972Z,947.8
2023-05-21T10:40:23.543Z,947.8
2023-05-21T10:41:27.889Z,947.8
2023-05-21T10:42:29.675Z,947.7
2023-05-21T10:43:31.319Z,947.7
2023-05-21T10:44:33.002Z,947.7
2023-05-21T10:45:34.837Z,947.7
2023-05-21T10:46:36.588Z,947.8
2023-05-21T10:47:38.404Z,947.8
2023-05-21T10:48:40.247Z,947.8
2023-05-21T10:49:41.929Z,947.8
2023-05-21T10:50:43.684Z,947.8
2023-05-21T10:51:45.291Z,947.8
2023-05-21T10:52:46.947Z,947.8
2023-05-21T10:53:48.553Z,947.8
2023-05-21T10:54:50.388Z,947.8
2023-05-21T10:55:52.147Z,947.8
2023-05-21T10:56:53.790Z,947.8
2023-05-21T10:57:55.383Z,947.8
2023-05-21T10:58:57.041Z,947.7
2023-05-21T10:59:58.618Z,947.8
2023-05-21T11:01:00.510Z,947.8
2023-05-21T11:02:02.376Z,947.8
2023-05-21T11:03:04.548Z,947.7
2023-05-21T11:04:06.718Z,947.7
2023-05-21T11:05:08.389Z,947.7
2023-05-21T11:06:10.133Z,947.7
2023-05-21T11:07:11.907Z,947.7
2023-05-21T11:08:13.611Z,947.7
2023-05-21T11:09:15.220Z,947.7
2023-05-21T11:10:16.908Z,947.7
2023-05-21T11:11:18.476Z,947.7
2023-05-21T11:12:20.235Z,947.6
2023-05-21T11:13:22.157Z,947.6
2023-05-21T11:14:23.987Z,947.6
2023-05-21T11:15:25.589Z,947.6
2023-05-21T11:16:27.252Z,947.6
2023-05-21T11:17:29.176Z,947.6
2023-05-21T11:18:31.112Z,947.6
2023-05-21T11:19:34.979Z,947.5
2023-05-21T11:20:37.763Z,947.6
2023-05-21T11:21:39.817Z,947.5
2023-05-21T11:22:41.665Z,947.5
2023-05-21T11:23:43.295Z,947.5
2023-05-21T11:24:44.977Z,947.5
2023-05-21T11:25:47.852Z,947.5
2023-05-21T11:26:49.468Z,947.5
2023-05-21T11:27:51.190Z,947.5
2023-05-21T11:28:52.797Z,947.5
2023-05-21T11:29:54.438Z,947.5
2023-05-21T11:30:56.127Z,947.5
2023-05-21T11:31:57.791Z,947.4
2023-05-21T11:32:59.500Z,947.5
2023-05-21T11:34:01.607Z,947.4
2023-05-21T11:35:03.244Z,947.5
2023-05-21T11:36:04.916Z,947.5
2023-05-21T11:37:06.623Z,947.5
2023-05-21T11:38:08.345Z,947.5
2023-05-21T11:39:12.698Z,947.5
2023-05-21T11:40:14.333Z,947.5
2023-05-21T11:41:16.018Z,947.5
2023-05-21T11:42:17.628Z,947.5
2023-05-21T11:43:19.230Z,947.5
2023-05-21T11:44:21.097Z,947.4
2023-05-21T11:45:22.676Z,947.4
2023-05-21T11:46:24.568Z,947.5
2023-05-21T11:47:26.860Z,947.4
2023-05-21T11:48:32.833Z,947.4
2023-05-21T11:49:34.492Z,947.4
2023-05-21T11:50:36.760Z,947.4
2023-05-21T11:51:39.001Z,947.4
2023-05-21T11:52:40.653Z,947.4
2023-05-21T11:53:44.842Z,947.4
2023-05-21T11:54:46.803Z,947.4
2023-05-21T11:55:48.410Z,947.4
2023-05-21T11:56:50.060Z,947.4
2023-05-21T11:57:51.852Z,947.4
2023-05-21T11:58:53.650Z,947.4
2023-05-21T11:59:55.289Z,947.4
2023-05-21T12:00:56.971Z,947.4
2023-05-21T12:01:58.588Z,947.4
2023-05-21T12:03:00.609Z,947.3
2023-05-21T12:04:02.841Z,947.3
2023-05-21T12:05:04.967Z,947.3
2023-05-21T12:06:07.016Z,947.4
2023-05-21T12:07:08.853Z,947.3
2023-05-21T12:08:10.442Z,947.3
2023-05-21T12:09:12.212Z,947.4
2023-05-21T12:10:14.047Z,947.3
2023-05-21T12:11:15.849Z,947.3
2023-05-21T12:12:17.524Z,947.3
2023-05-21T12:13:19.123Z,947.3
2023-05-21T12:14:21.180Z,947.3
2023-05-21T12:15:23.287Z,947.3
2023-05-21T12:16:25.254Z,947.3
2023-05-21T12:17:27.201Z,947.3
2023-05-21T12:18:28.876Z,947.3
2023-05-21T12:19:31.003Z,947.3
2023-05-21T12:20:32.860Z,947.3
2023-05-21T12:21:34.479Z,947.3
2023-05-21T12:22:36.274Z,947.3
2023-05-21T12:23:37.871Z,947.3
2023-05-21T12:24:39.493Z,947.3
2023-05-21T12:25:41.128Z,947.3
2023-05-21T12:26:42.713Z,947.3
2023-05-21T12:27:44.425Z,947.3
2023-05-21T12:28:46.041Z,947.3
2023-05-21T12:29:47.680Z,947.3
2023-05-21T12:30:49.301Z,947.3
2023-05-21T12:31:51.263Z,947.3
2023-05-21T12:32:53.366Z,947.3
2023-05-21T12:33:55.282Z,947.2
2023-05-21T12:34:56.888Z,947.3
2023-05-21T12:35:58.871Z,947.2
2023-05-21T12:37:00.519Z,947.2
2023-05-21T12:38:02.176Z,947.3
2023-05-21T12:39:03.790Z,947.2
2023-05-21T12:40:05.425Z,947.2
2023-05-21T12:41:07.296Z,947.2
2023-05-21T12:42:09.021Z,947.2
2023-05-21T12:43:10.779Z,947.2
2023-05-21T12:44:12.379Z,947.2
2023-05-21T12:45:14.182Z,947.2
2023-05-21T12:46:16.617Z,947.2
2023-05-21T12:47:18.513Z,947.2
2023-05-21T12:48:20.146Z,947.2
2023-05-21T12:49:21.810Z,947.2
2023-05-21T12:50:23.438Z,947.2
2023-05-21T12:51:25.078Z,947.2
2023-05-21T12:52:26.676Z,947.2
2023-05-21T12:53:28.497Z,947.1
2023-05-21T12:54:30.103Z,947.2
2023-05-21T12:55:31.726Z,947.1
2023-05-21T12:56:33.351Z,947.1
2023-05-21T12:57:34.964Z,947.1
2023-05-21T12:58:36.710Z,947.1
2023-05-21T12:59:38.287Z,947.1
2023-05-21T13:00:41.008Z,947.2
2023-05-21T13:01:43.149Z,947.1
2023-05-21T13:02:45.653Z,947.1
2023-05-21T13:03:47.802Z,947.1
2023-05-21T13:04:49.562Z,947.1
2023-05-21T13:05:51.171Z,947
2023-05-21T13:06:52.756Z,947
2023-05-21T13:07:54.365Z,947
2023-05-21T13:08:56.035Z,947
2023-05-21T13:09:57.658Z,947
2023-05-21T13:10:59.286Z,947
2023-05-21T13:12:01.006Z,947.1
2023-05-21T13:13:02.683Z,947
2023-05-21T13:14:04.693Z,947.1
2023-05-21T13:15:06.458Z,947
2023-05-21T13:16:08.468Z,947.1
2023-05-21T13:17:10.524Z,947
2023-05-21T13:18:12.693Z,947
2023-05-21T13:19:15.020Z,947
2023-05-21T13:20:16.930Z,947